Time;durP1;ratioP1;P1;durP2;ratioP2;P2;SDS_P1;SDS_P2;PMS_P1;PMS_P2;Temp;Humidity;BMP_temperature;BMP_pressure;BME280_temperature;BME280_humidity;BME280_pressure;Samples;Min_cycle;Max_cycle;Signal;HPM_P1;HPM_P2
2022/08/11 00:00:11;;;;;;;55.03;35.65;;;;;;;21.65;60.20;99572.78;5018309;28;20049;-75
2022/08/11 00:03:08;;;;;;;53.13;35.20;;;;;;;21.62;60.43;99573.16;5034956;28;20124;-76
2022/08/11 00:05:55;;;;;;;46.38;35.58;;;;;;;21.65;60.72;99568.19;5001621;28;20047;-75
2022/08/11 00:08:27;;;;;;;55.28;35.42;;;;;;;21.66;61.17;99575.31;5034606;28;20048;-76
2022/08/11 00:10:57;;;;;;;49.75;35.28;;;;;;;21.64;61.76;99579.28;5034786;28;20049;-76
2022/08/11 00:13:35;;;;;;;59.38;36.67;;;;;;;21.64;62.18;99571.09;5034812;28;20042;-77
2022/08/11 00:16:03;;;;;;;57.88;37.35;;;;;;;21.54;61.68;99574.94;5034768;28;20045;-76
2022/08/11 00:18:40;;;;;;;54.53;36.70;;;;;;;21.46;62.03;99569.59;5034405;28;20045;-77
2022/08/11 00:21:07;;;;;;;58.92;36.47;;;;;;;21.45;61.89;99577.97;5034641;28;20284;-79
2022/08/11 00:23:38;;;;;;;56.15;38.15;;;;;;;21.36;61.74;99579.91;5034901;28;20049;-75
2022/08/11 00:26:06;;;;;;;66.10;38.72;;;;;;;21.25;61.76;99577.63;5001681;28;20041;-75
2022/08/11 00:28:34;;;;;;;60.85;36.90;;;;;;;21.19;61.90;99573.78;5034582;28;20048;-75
2022/08/11 00:31:09;;;;;;;56.30;37.63;;;;;;;21.17;62.63;99580.41;5034642;28;20049;-75
2022/08/11 00:33:41;;;;;;;53.65;35.20;;;;;;;21.20;62.37;99583.63;5033981;28;20080;-75
2022/08/11 00:36:09;;;;;;;54.78;34.67;;;;;;;21.16;62.24;99578.75;5033197;28;20041;-75
2022/08/11 00:38:40;;;;;;;63.97;36.15;;;;;;;21.12;62.11;99588.28;5034095;28;20096;-74
2022/08/11 00:41:35;;;;;;;57.67;35.50;;;;;;;21.07;61.83;99581.53;5017524;28;20148;-75
2022/08/11 00:44:09;;;;;;;50.55;35.15;;;;;;;21.08;61.39;99588.66;5001526;28;20041;-75
2022/08/11 00:47:06;;;;;;;50.95;36.33;;;;;;;21.07;61.85;99589.69;5001693;28;20488;-74
2022/08/11 00:49:50;;;;;;;47.90;33.80;;;;;;;21.06;61.77;99582.56;5017424;28;20049;-75
2022/08/11 00:52:35;;;;;;;52.03;35.65;;;;;;;21.04;61.67;99581.91;5017373;28;20042;-75
2022/08/11 00:55:19;;;;;;;50.53;34.30;;;;;;;21.05;62.15;99589.03;5001104;28;20045;-76
2022/08/11 00:58:03;;;;;;;49.45;35.00;;;;;;;21.06;61.96;99590.72;5034267;28;20531;-77
2022/08/11 01:00:41;;;;;;;56.42;36.28;;;;;;;21.04;61.81;99579.19;5033644;28;20405;-76
2022/08/11 01:03:32;;;;;;;53.13;35.33;;;;;;;21.03;62.11;99580.22;5017712;28;20140;-75
2022/08/11 01:06:23;;;;;;;43.22;34.85;;;;;;;20.94;61.95;99575.88;5033721;28;20049;-77
2022/08/11 01:09:04;;;;;;;49.90;35.17;;;;;;;20.96;61.70;99584.69;5000834;28;20156;-76
2022/08/11 01:11:58;;;;;;;51.50;34.20;;;;;;;20.98;62.11;99588.06;5016994;28;20504;-75
2022/08/11 01:15:03;;;;;;;45.97;35.22;;;;;;;20.99;61.58;99584.34;5000830;28;20049;-76
2022/08/11 01:18:11;;;;;;;60.00;34.35;;;;;;;21.00;61.73;99599.63;5017454;28;20042;-75
2022/08/11 01:21:08;;;;;;;57.85;36.15;;;;;;;20.99;61.89;99595.22;5020219;28;20121;-76
2022/08/11 01:23:52;;;;;;;61.58;33.65;;;;;;;20.94;61.28;99597.63;5033284;28;20055;-75
2022/08/11 01:26:21;;;;;;;56.95;33.22;;;;;;;20.92;61.80;99594.25;5000674;28;20049;-75
2022/08/11 01:29:07;;;;;;;;;;;;;;;20.92;61.64;99596.97;5016940;28;20044;-75
2022/08/11 01:31:51;;;;;;;52.40;34.08;;;;;;;20.91;61.42;99598.00;5022649;28;19928;-75
2022/08/11 01:34:26;;;;;;;50.03;34.53;;;;;;;20.94;62.17;99602.22;5000547;28;20144;-75
2022/08/11 01:37:01;;;;;;;57.10;33.67;;;;;;;20.93;61.83;99601.38;5016712;28;20059;-76
2022/08/11 01:40:14;;;;;;;54.67;33.90;;;;;;;20.92;61.54;99599.69;5016035;28;20061;-76
2022/08/11 01:46:05;;;;;;;49.83;34.22;;;;;;;20.94;61.86;99605.78;5015720;28;20041;-75
2022/08/11 01:48:54;;;;;;;50.72;33.78;;;;;;;21.02;61.98;99610.28;5015833;28;20095;-76
2022/08/11 01:51:36;;;;;;;;;;;;;;;21.10;61.64;99607.53;5032993;28;20045;-75
2022/08/11 01:54:26;;;;;;;51.20;32.13;;;;;;;21.08;61.29;99606.84;5016228;28;19924;-75
2022/08/11 01:57:30;;;;;;;48.28;33.85;;;;;;;21.04;61.23;99621.84;5032482;28;20049;-75
2022/08/11 02:00:12;;;;;;;47.28;32.53;;;;;;;21.06;61.38;99614.31;4999863;28;20041;-76
2022/08/11 02:02:52;;;;;;;48.05;33.55;;;;;;;21.09;61.09;99616.69;4999477;28;20041;-76
2022/08/11 02:05:59;;;;;;;47.55;32.78;;;;;;;21.13;61.57;99609.00;5032253;28;20147;-75
2022/08/11 02:08:43;;;;;;;51.63;33.85;;;;;;;21.15;61.02;99609.69;5015678;28;20084;-75
2022/08/11 02:11:32;;;;;;;64.15;35.30;;;;;;;21.16;61.23;99616.78;4999504;28;20408;-76
2022/08/11 02:14:39;;;;;;;68.53;36.17;;;;;;;21.18;61.36;99614.75;5015685;28;20045;-77
2022/08/11 02:17:50;;;;;;;52.58;33.92;;;;;;;21.19;61.56;99617.28;5027766;28;20088;-77
2022/08/11 02:23:39;;;;;;;56.83;37.22;;;;;;;21.23;61.15;99618.59;5031391;28;20520;-77
2022/08/11 02:26:10;;;;;;;59.28;36.20;;;;;;;21.26;61.23;99623.66;5033084;28;20171;-76
2022/08/11 02:28:58;;;;;;;61.20;36.22;;;;;;;21.34;60.86;99625.50;5016099;28;20034;-78
2022/08/11 02:34:36;;;;;;;52.20;35.33;;;;;;;21.53;60.50;99635.81;5040311;28;20037;-74
2022/08/11 02:37:15;;;;;;;58.13;36.35;;;;;;;21.59;60.41;99631.53;5015648;28;20396;-77
2022/08/11 02:40:01;;;;;;;56.13;36.33;;;;;;;21.54;59.73;99618.47;5014918;28;20103;-78
2022/08/11 02:42:45;;;;;;;47.40;36.38;;;;;;;21.67;59.70;99633.31;5015048;28;20069;-77
2022/08/11 02:45:11;;;;;;;64.63;38.22;;;;;;;21.72;59.61;99633.59;5032637;28;20393;-74
2022/08/11 02:51:13;;;;;;;60.00;36.30;;;;;;;21.89;59.46;99635.09;5032407;28;20057;-77
2022/08/11 02:54:14;;;;;;;55.17;36.15;;;;;;;22.00;59.30;99637.34;5032724;28;20092;-74
2022/08/11 02:57:19;;;;;;;59.40;39.33;;;;;;;22.16;59.00;99646.34;4998672;28;20052;-74
2022/08/11 03:00:09;;;;;;;53.08;36.63;;;;;;;22.30;58.93;99646.34;5006132;28;20041;-75
2022/08/11 03:02:52;;;;;;;57.90;37.47;;;;;;;22.37;58.81;99638.22;5033004;28;20179;-76
2022/08/11 03:05:25;;;;;;;60.88;38.88;;;;;;;22.50;57.98;99643.00;5032563;28;20497;-75
2022/08/11 03:08:00;;;;;;;59.10;37.58;;;;;;;22.54;57.76;99641.56;5031368;28;20045;-75
2022/08/11 03:10:33;;;;;;;59.15;36.35;;;;;;;22.61;57.73;99636.19;5031491;28;20107;-75
2022/08/11 03:19:43;;;;;;;56.42;37.17;;;;;;;22.89;56.73;99664.34;5032247;28;20053;-80
2022/08/11 03:22:20;;;;;;;54.83;36.75;;;;;;;22.99;56.78;99669.53;5022753;28;20135;-74
2022/08/11 03:25:14;;;;;;;49.67;36.15;;;;;;;23.13;56.20;99659.56;4999058;28;20037;-73
2022/08/11 03:28:27;;;;;;;63.50;36.42;;;;;;;23.21;55.85;99660.28;5019697;28;20423;-74
2022/08/11 03:31:54;;;;;;;50.15;36.17;;;;;;;23.41;55.58;99670.50;5039847;28;20045;-75
2022/08/11 03:34:25;;;;;;;53.92;36.15;;;;;;;23.55;54.91;99657.81;4942490;28;20482;-76
2022/08/11 03:37:06;;;;;;;58.70;36.10;;;;;;;23.72;54.63;99672.84;4990895;28;20405;-75
2022/08/11 03:39:47;;;;;;;52.85;35.85;;;;;;;23.84;54.29;99664.94;4991191;28;20468;-74
2022/08/11 03:42:41;;;;;;;53.90;35.45;;;;;;;23.84;54.50;99668.50;5014786;28;20060;-75
2022/08/11 03:45:48;;;;;;;54.58;36.92;;;;;;;23.88;54.42;99667.09;5014337;28;20045;-74
2022/08/11 03:48:45;;;;;;;56.70;35.33;;;;;;;23.91;54.10;99674.88;5010121;28;20529;-75
2022/08/11 03:51:20;;;;;;;47.83;34.83;;;;;;;24.00;53.98;99683.75;5014318;28;20068;-75
2022/08/11 03:54:08;;;;;;;53.85;34.80;;;;;;;24.13;53.42;99682.97;5014825;28;20053;-74
2022/08/11 03:56:56;;;;;;;57.53;34.65;;;;;;;24.26;53.26;99683.06;5032518;28;20068;-75
2022/08/11 04:00:00;;;;;;;57.70;35.97;;;;;;;24.36;53.15;99685.38;5013357;28;20504;-75
2022/08/11 04:02:56;;;;;;;56.70;36.00;;;;;;;24.45;52.57;99687.78;5012537;28;20049;-75
2022/08/11 04:05:41;;;;;;;49.83;35.00;;;;;;;24.53;52.44;99678.56;5029289;28;20045;-75
2022/08/11 04:08:31;;;;;;;53.28;34.30;;;;;;;24.62;52.31;99677.31;5030145;28;20043;-74
2022/08/11 04:10:58;;;;;;;51.70;36.53;;;;;;;24.73;51.92;99694.16;5017592;28;20049;-75
2022/08/11 04:17:24;;;;;;;51.83;35.72;;;;;;;24.96;51.53;99680.97;5028022;28;20049;-75
2022/08/11 04:20:17;;;;;;;53.15;36.72;;;;;;;25.12;51.42;99693.44;5034564;28;20099;-74
2022/08/11 04:23:25;;;;;;;48.80;34.88;;;;;;;25.26;51.36;99702.50;5034584;28;20076;-75
2022/08/11 04:25:54;;;;;;;58.38;37.40;;;;;;;25.37;51.04;99701.88;5034723;28;20041;-75
2022/08/11 04:28:41;;;;;;;52.80;35.15;;;;;;;25.54;50.33;99702.28;5001479;28;20045;-74
2022/08/11 04:31:25;;;;;;;52.75;34.47;;;;;;;25.65;50.47;99694.31;5018021;28;20091;-76
2022/08/11 04:34:25;;;;;;;59.25;34.35;;;;;;;25.71;50.02;99702.72;5034261;28;20042;-74
2022/08/11 04:37:33;;;;;;;56.15;35.60;;;;;;;25.87;50.19;99697.66;5034291;28;20099;-75
2022/08/11 04:40:18;;;;;;;66.38;34.97;;;;;;;25.77;50.12;99701.88;5000938;28;20444;-75
2022/08/11 04:43:21;;;;;;;67.45;34.72;;;;;;;25.88;50.20;99696.63;5001046;28;20057;-75
2022/08/11 04:46:02;;;;;;;73.75;34.90;;;;;;;26.15;49.68;99688.31;5017976;28;20370;-74
2022/08/11 05:02:16;;;;;;;58.47;35.30;;;;;;;26.98;48.37;99687.53;5000037;28;20053;-75
2022/08/11 05:08:00;;;;;;;63.03;34.35;;;;;;;27.33;47.82;99690.69;5034885;28;20515;-75
2022/08/11 05:10:47;;;;;;;65.47;35.97;;;;;;;27.49;47.11;99697.50;5034543;28;20095;-75
2022/08/11 05:37:08;;;;;;;;;;;;;;;28.12;46.29;99694.59;5033648;28;20566;-74
2022/08/11 05:56:33;;;;;;;45.75;31.42;;;;;;;28.70;44.22;99691.38;5033642;28;20037;-75
2022/08/11 05:59:00;;;;;;;52.42;31.52;;;;;;;28.93;43.51;99689.78;5032385;28;20514;-74
2022/08/11 06:01:29;;;;;;;45.22;30.30;;;;;;;29.07;43.46;99680.25;5032455;28;20049;-75
2022/08/11 06:04:15;;;;;;;46.72;30.30;;;;;;;29.32;43.11;99682.00;5015843;28;20492;-76
2022/08/11 06:06:49;;;;;;;46.10;30.83;;;;;;;29.54;42.31;99685.88;5033492;28;20041;-75
2022/08/11 06:09:31;;;;;;;56.08;30.95;;;;;;;29.61;41.95;99686.63;5032032;28;20394;-75
2022/08/11 06:12:03;;;;;;;55.65;30.88;;;;;;;29.57;42.11;99679.88;4999272;28;20135;-75
2022/08/11 06:14:31;;;;;;;51.47;31.38;;;;;;;29.73;41.56;99695.72;5015873;28;20496;-75
2022/08/11 06:17:01;;;;;;;55.42;30.08;;;;;;;29.63;41.03;99687.22;5015727;28;20492;-74
2022/08/11 06:19:33;;;;;;;46.28;29.88;;;;;;;29.53;41.73;99695.22;5031949;28;20128;-76
2022/08/11 06:22:00;;;;;;;49.17;29.98;;;;;;;29.59;41.64;99691.53;5031922;28;20531;-75
2022/08/11 06:24:28;;;;;;;53.67;27.75;;;;;;;29.42;41.50;99674.00;4999496;28;20405;-75
2022/08/11 06:26:55;;;;;;;55.33;29.40;;;;;;;29.48;41.24;99689.56;5031915;28;20041;-75
2022/08/11 06:29:23;;;;;;;46.33;29.48;;;;;;;29.55;40.96;99679.28;5031729;28;20046;-75
2022/08/11 06:31:52;;;;;;;48.60;29.63;;;;;;;29.82;41.21;99689.84;5032756;28;20059;-75
2022/08/11 06:34:41;;;;;;;41.15;28.58;;;;;;;30.13;40.41;99683.97;4998575;28;20037;-75
2022/08/11 06:37:17;;;;;;;48.38;28.75;;;;;;;30.12;39.61;99690.53;5026260;28;20068;-75
2022/08/11 06:39:50;;;;;;;49.58;28.25;;;;;;;30.07;39.95;99684.09;5031439;28;20103;-75
2022/08/11 06:42:50;;;;;;;45.78;27.98;;;;;;;30.13;39.78;99686.72;4998956;28;20389;-74
2022/08/11 06:45:36;;;;;;;48.28;27.63;;;;;;;30.30;40.08;99683.22;5031796;28;20515;-78
2022/08/11 06:48:05;;;;;;;40.15;27.50;;;;;;;30.45;39.59;99675.28;5015113;28;20144;-75
2022/08/11 06:53:19;;;;;;;43.45;28.33;;;;;;;29.98;39.83;99691.91;5032917;28;20077;-75
2022/08/11 07:01:35;;;;;;;;;;;;;;;29.52;40.83;99682.50;5031782;28;20045;-76
2022/08/11 07:04:08;;;;;;;45.58;26.27;;;;;;;29.89;40.97;99679.53;5015005;28;20027;-75
2022/08/11 07:15:40;;;;;;;45.17;26.35;;;;;;;30.42;39.93;99675.75;5014964;28;20504;-76
2022/08/11 07:15:55;;;;;;;44.30;26.50;;;;;;;31.50;37.53;99673.09;5031880;28;20144;-75
2022/08/11 07:29:54;;;;;;;41.60;24.33;;;;;;;32.24;36.80;99670.06;5032309;28;20052;-75
2022/08/11 07:32:30;;;;;;;35.85;22.33;;;;;;;32.49;35.72;99673.16;5030667;28;20041;-76
2022/08/11 07:35:12;;;;;;;31.23;21.13;;;;;;;32.39;35.77;99673.00;4998203;28;20519;-75
2022/08/11 07:37:42;;;;;;;33.33;21.50;;;;;;;32.63;35.91;99677.19;5032225;28;20501;-74
2022/08/11 07:40:10;;;;;;;37.10;20.33;;;;;;;32.90;35.12;99670.84;5014432;28;20057;-76
2022/08/11 07:42:37;;;;;;;;;;;;;;;32.96;34.64;99667.06;4998898;28;20127;-75
2022/08/11 07:53:32;;;;;;;27.45;16.65;;;;;;;32.92;34.92;99657.56;5035603;28;20091;-75
2022/08/11 07:56:01;;;;;;;21.20;15.70;;;;;;;32.96;34.55;99650.44;5034983;28;20087;-75
2022/08/11 08:18:01;;;;;;;30.67;16.60;;;;;;;32.52;35.76;99647.72;5033471;28;20041;-74
2022/08/11 08:20:33;;;;;;;29.63;17.98;;;;;;;32.66;35.31;99642.63;4984032;28;20049;-75
2022/08/11 08:23:01;;;;;;;25.60;16.63;;;;;;;32.62;35.43;99634.00;5000402;28;20045;-75
2022/08/11 08:25:30;;;;;;;19.83;15.43;;;;;;;32.53;35.25;99641.09;5033175;28;20084;-76
2022/08/11 08:27:57;;;;;;;27.27;15.95;;;;;;;32.26;35.57;99640.19;5033289;28;20104;-74
2022/08/11 08:33:17;;;;;;;22.83;15.00;;;;;;;32.46;35.84;99634.94;5033668;28;20045;-76
2022/08/11 08:35:44;;;;;;;23.52;16.10;;;;;;;32.55;35.61;99632.53;5033218;28;20107;-75
2022/08/11 08:38:10;;;;;;;20.90;14.35;;;;;;;32.50;35.29;99625.03;5034054;28;20081;-74
2022/08/11 08:40:41;;;;;;;30.05;15.75;;;;;;;32.90;34.74;99623.75;5017263;28;20041;-75
2022/08/11 08:43:11;;;;;;;22.02;14.63;;;;;;;33.16;34.67;99637.88;5001391;28;20041;-75
2022/08/11 08:45:38;;;;;;;21.08;14.88;;;;;;;33.42;33.92;99636.97;5017481;28;20064;-74
2022/08/11 08:48:12;;;;;;;24.50;15.38;;;;;;;34.16;33.77;99626.94;5016960;28;20509;-75
2022/08/11 08:53:35;;;;;;;30.67;15.55;;;;;;;34.54;32.90;99621.00;5033607;28;20049;-74
2022/08/11 08:56:04;;;;;;;19.70;14.00;;;;;;;34.28;32.25;99616.44;5016414;28;20152;-75
2022/08/11 08:58:30;;;;;;;;;;;;;;;33.94;32.29;99639.00;5017587;28;20064;-74
2022/08/11 09:00:59;;;;;;;19.33;10.88;;;;;;;32.52;36.13;99647.72;5034802;28;20025;-74
2022/08/11 09:03:26;;;;;;;23.20;11.73;;;;;;;30.47;39.44;99653.81;5017875;28;20057;-75
2022/08/11 09:05:55;;;;;;;18.08;11.05;;;;;;;29.55;42.89;99648.97;5035789;28;20473;-75
2022/08/11 09:08:23;;;;;;;25.17;12.65;;;;;;;29.35;44.59;99631.97;5033429;28;20034;-76
2022/08/11 09:11:48;;;;;;;19.30;11.38;;;;;;;29.76;44.70;99631.88;5016942;28;20049;-75
2022/08/11 09:13:39;;;;;;;17.93;12.23;;;;;;;30.13;43.96;99628.00;5032918;28;20045;-75
2022/08/11 09:16:08;;;;;;;18.02;11.73;;;;;;;30.39;43.20;99621.06;5034501;28;20480;-76
2022/08/11 09:18:36;;;;;;;23.52;11.30;;;;;;;30.52;43.13;99622.72;5033176;28;20523;-75
2022/08/11 09:21:03;;;;;;;14.52;11.57;;;;;;;30.74;43.06;99623.72;5033111;28;20045;-75
2022/08/11 09:29:00;;;;;;;23.98;12.75;;;;;;;31.71;41.27;99618.97;5034765;28;20136;-77
2022/08/11 09:31:30;;;;;;;15.15;11.75;;;;;;;32.08;40.29;99611.78;5016418;28;20046;-74
2022/08/11 09:33:57;;;;;;;15.63;11.25;;;;;;;32.77;38.80;99602.06;5034381;28;20046;-75
2022/08/11 09:41:54;;;;;;;14.52;10.70;;;;;;;34.68;36.62;99598.22;5034359;28;20178;-74
2022/08/11 09:47:14;;;;;;;21.98;11.48;;;;;;;35.28;34.41;99579.94;5032764;28;20106;-73
2022/08/11 09:49:52;;;;;;;15.88;10.55;;;;;;;35.57;33.96;99582.16;5016111;28;20573;-74
2022/08/11 09:52:21;;;;;;;19.60;10.55;;;;;;;35.69;34.35;99585.44;5000068;28;20037;-74
2022/08/11 09:54:48;;;;;;;16.35;10.45;;;;;;;35.66;33.75;99592.44;5032603;28;20044;-74
2022/08/11 10:00:02;;;;;;;16.75;9.30;;;;;;;34.09;33.95;99591.13;5033544;28;19925;-75
2022/08/11 10:02:31;;;;;;;27.98;10.48;;;;;;;33.80;35.06;99599.00;5016392;28;20049;-75
2022/08/11 10:07:00;;;;;;;12.63;10.70;;;;;;;33.04;36.21;99597.34;5015409;28;20071;-75
2022/08/11 10:07:49;;;;;;;19.17;11.15;;;;;;;32.24;37.74;99598.13;5033380;28;20100;-75
2022/08/11 10:10:21;;;;;;;17.98;10.23;;;;;;;31.82;36.92;99607.81;5016120;28;20060;-75
2022/08/11 10:13:04;;;;;;;15.73;10.77;;;;;;;31.80;37.47;99598.09;5032180;28;20051;-76
2022/08/11 10:15:35;;;;;;;20.45;10.15;;;;;;;31.73;37.66;99591.91;5015657;28;20072;-76
2022/08/11 10:21:14;;;;;;;17.40;10.27;;;;;;;31.41;38.25;99600.88;5031858;28;20053;-75
2022/08/11 10:26:51;;;;;;;12.77;8.85;;;;;;;30.28;38.92;99597.13;5032218;28;20045;-75
2022/08/11 10:34:49;;;;;;;9.73;5.43;;;;;;;29.21;36.79;99593.63;5032884;28;20052;-77
2022/08/11 10:37:18;;;;;;;8.60;5.78;;;;;;;29.17;37.20;99608.13;5031868;28;20123;-75
2022/08/11 10:39:45;;;;;;;10.63;5.57;;;;;;;29.23;36.93;99601.69;5031499;28;20124;-75
2022/08/11 10:45:00;;;;;;;12.38;7.35;;;;;;;29.33;38.57;99596.41;5031776;28;20037;-75
2022/08/11 10:47:38;;;;;;;14.48;7.13;;;;;;;29.55;39.28;99621.44;5031540;28;20052;-75
2022/08/11 10:58:49;;;;;;;20.33;8.55;;;;;;;30.07;40.23;99646.31;5015142;28;20048;-76
2022/08/11 11:01:24;;;;;;;20.33;9.15;;;;;;;30.17;41.29;99648.50;5015115;28;20052;-75
2022/08/11 11:03:54;;;;;;;13.98;9.00;;;;;;;29.96;41.84;99647.19;5032741;28;20045;-75
2022/08/11 11:06:26;;;;;;;11.45;9.00;;;;;;;29.82;42.52;99637.50;5032873;28;20041;-75
2022/08/11 11:08:59;;;;;;;16.98;9.68;;;;;;;29.53;42.88;99637.38;5031366;28;20076;-75
2022/08/11 11:20:02;;;;;;;18.20;9.55;;;;;;;29.87;42.49;99629.34;5034009;28;20416;-75
2022/08/11 11:22:38;;;;;;;17.10;9.15;;;;;;;30.00;42.66;99640.94;5035420;28;20042;-75
2022/08/11 11:25:25;;;;;;;19.30;10.10;;;;;;;30.20;42.90;99648.84;5019090;28;20060;-75
2022/08/11 11:28:09;;;;;;;17.67;9.77;;;;;;;30.38;42.43;99652.50;5019023;28;20037;-76
2022/08/11 11:30:48;;;;;;;15.18;8.02;;;;;;;30.50;41.51;99653.28;5002482;28;20041;-75
2022/08/11 11:33:35;;;;;;;14.10;8.10;;;;;;;30.70;39.90;99648.19;5036512;28;20041;-76
2022/08/11 11:36:20;;;;;;;21.80;7.78;;;;;;;31.01;39.20;99654.28;5035314;28;20183;-75
2022/08/11 11:38:46;;;;;;;16.15;8.38;;;;;;;30.88;39.15;99647.19;5034898;28;20057;-75
2022/08/11 11:41:24;;;;;;;11.27;8.00;;;;;;;31.14;39.90;99650.38;5036390;28;20135;-75
2022/08/11 11:43:54;;;;;;;;;;;;;;;31.48;39.35;99644.88;5036669;28;20496;-75
2022/08/11 11:46:21;;;;;;;11.95;7.70;;;;;;;31.88;38.73;99652.97;5036035;28;19917;-74
2022/08/11 11:48:48;;;;;;;16.15;7.60;;;;;;;32.19;38.37;99651.44;5001999;28;20091;-75
2022/08/11 11:51:14;;;;;;;13.60;7.70;;;;;;;32.19;38.29;99650.59;5035152;28;20110;-77
2022/08/11 11:53:45;;;;;;;13.25;7.53;;;;;;;32.10;38.55;99651.06;5018336;28;20050;-77
2022/08/11 11:56:12;;;;;;;12.57;7.78;;;;;;;32.20;38.55;99646.75;5033169;28;20041;-75
2022/08/11 12:01:24;;;;;;;9.98;7.22;;;;;;;32.51;37.57;99643.31;5036054;28;20210;-75
2022/08/11 12:03:52;;;;;;;15.98;7.82;;;;;;;32.89;36.92;99649.78;5034662;28;20098;-75
2022/08/11 12:06:22;;;;;;;19.15;7.68;;;;;;;33.16;36.31;99635.09;5017918;28;20037;-75
2022/08/11 12:08:52;;;;;;;11.98;7.40;;;;;;;33.27;36.46;99634.09;5034557;28;20041;-75
2022/08/11 12:14:07;;;;;;;13.17;7.03;;;;;;;35.20;34.44;99633.31;5017973;28;20041;-75
2022/08/11 12:16:36;;;;;;;13.13;7.32;;;;;;;36.87;32.23;99633.94;5034232;28;20156;-76
2022/08/11 12:19:20;;;;;;;10.23;7.20;;;;;;;37.92;29.86;99608.50;5017560;28;20140;-75
2022/08/11 12:27:19;;;;;;;14.60;7.82;;;;;;;39.80;27.08;99630.00;5035404;28;20041;-74
2022/08/11 12:29:47;;;;;;;13.23;7.03;;;;;;;39.44;27.33;99627.00;5034003;28;20172;-75
2022/08/11 12:32:13;;;;;;;;;;;;;;;39.39;26.35;99629.88;5017644;28;20048;-75
2022/08/11 12:34:39;;;;;;;9.77;5.88;;;;;;;39.20;25.81;99627.94;5035097;28;20306;-75
2022/08/11 12:37:11;;;;;;;19.60;7.07;;;;;;;37.62;26.96;99627.22;5017951;28;20037;-74
2022/08/11 12:45:27;;;;;;;12.63;6.47;;;;;;;35.94;30.04;99615.97;5033782;28;20041;-75
2022/08/11 12:53:43;;;;;;;16.48;6.50;;;;;;;35.60;30.33;99609.41;5034927;28;20122;-75
2022/08/11 13:07:14;;;;;;;14.18;6.03;;;;;;;32.39;35.83;99615.75;5016872;28;20496;-75
2022/08/11 13:09:42;;;;;;;12.38;6.43;;;;;;;32.14;36.40;99605.19;5033375;28;20049;-75
2022/08/11 13:14:54;;;;;;;9.88;8.25;;;;;;;32.53;36.57;99607.88;5034339;28;19921;-74
2022/08/11 13:17:21;;;;;;;12.13;5.90;;;;;;;33.23;34.93;99596.94;5016329;28;20045;-75
2022/08/11 13:19:48;;;;;;;14.75;6.03;;;;;;;33.67;34.07;99605.03;5000345;28;20041;-75
2022/08/11 13:22:19;;;;;;;10.90;5.57;;;;;;;33.85;33.62;99596.22;5033959;28;20056;-75
2022/08/11 13:24:47;;;;;;;8.50;5.00;;;;;;;33.70;33.64;99601.69;5032855;28;20056;-74
2022/08/11 13:27:17;;;;;;;8.93;5.05;;;;;;;33.98;33.60;99601.34;5016394;28;20432;-74
2022/08/11 13:29:45;;;;;;;8.50;5.32;;;;;;;34.71;32.51;99598.50;5032808;28;20057;-75
2022/08/11 13:32:19;;;;;;;6.60;4.43;;;;;;;35.91;30.41;99597.06;5033890;28;20045;-75
2022/08/11 13:34:46;;;;;;;9.75;4.15;;;;;;;36.82;28.54;99600.50;5016339;28;20045;-75
2022/08/11 13:37:14;;;;;;;11.55;4.32;;;;;;;37.28;28.21;99599.34;5032316;28;20543;-74
2022/08/11 13:39:46;;;;;;;8.00;3.80;;;;;;;37.04;28.05;99610.41;5033794;28;20073;-74
2022/08/11 13:42:15;;;;;;;5.13;3.47;;;;;;;36.16;28.79;99603.69;5015428;28;20132;-74
2022/08/11 13:44:41;;;;;;;8.85;3.35;;;;;;;35.38;29.83;99623.56;5016156;28;20467;-75
2022/08/11 13:47:12;;;;;;;6.90;3.50;;;;;;;35.56;29.51;99623.03;4999539;28;20053;-74
2022/08/11 13:49:40;;;;;;;3.78;2.85;;;;;;;35.53;29.57;99619.97;5034040;28;20049;-74
2022/08/11 13:52:11;;;;;;;4.43;3.20;;;;;;;35.79;29.11;99624.38;5015952;28;20081;-74
2022/08/11 13:54:40;;;;;;;8.55;3.65;;;;;;;35.86;29.23;99624.06;5016322;28;20056;-74
2022/08/11 13:57:11;;;;;;;7.22;3.10;;;;;;;36.10;29.18;99629.84;5015897;28;20043;-74
2022/08/11 13:59:38;;;;;;;11.75;3.40;;;;;;;36.06;28.78;99635.16;5015827;28;20044;-74
2022/08/11 14:02:11;;;;;;;10.80;3.42;;;;;;;36.38;28.83;99622.78;5032895;28;20488;-75
2022/08/11 14:04:49;;;;;;;9.68;3.50;;;;;;;36.23;29.09;99629.25;5016041;28;20045;-75
2022/08/11 14:07:20;;;;;;;5.55;3.40;;;;;;;35.32;29.88;99631.09;5032307;28;20037;-75
2022/08/11 14:09:52;;;;;;;14.98;3.13;;;;;;;35.48;29.81;99623.56;5016046;28;20131;-74
2022/08/11 14:15:18;;;;;;;10.98;3.22;;;;;;;35.64;29.72;99622.44;5015972;28;20476;-74
2022/08/11 14:17:51;;;;;;;8.15;3.40;;;;;;;35.46;29.98;99631.34;5016049;28;20037;-74
2022/08/11 14:20:19;;;;;;;3.38;3.00;;;;;;;35.39;29.64;99626.06;5015510;28;20068;-75
2022/08/11 14:22:47;;;;;;;13.20;3.42;;;;;;;35.44;29.52;99639.97;4999461;28;20751;-75
2022/08/11 14:25:15;;;;;;;8.20;3.17;;;;;;;35.04;29.67;99636.09;5015652;28;20044;-76
2022/08/11 14:27:48;;;;;;;11.70;3.20;;;;;;;34.76;30.19;99637.41;5032028;28;20048;-76
2022/08/11 14:33:00;;;;;;;8.60;2.80;;;;;;;33.96;31.24;99635.94;5033177;28;20045;-73
2022/08/11 14:35:27;;;;;;;4.60;2.85;;;;;;;33.40;32.00;99646.63;5015952;28;20049;-75
2022/08/11 14:37:56;;;;;;;4.45;2.70;;;;;;;33.62;31.80;99636.31;5015580;28;20033;-75
2022/08/11 14:48:41;;;;;;;7.82;2.50;;;;;;;33.09;31.61;99651.94;5032604;28;20045;-74
2022/08/11 14:51:07;;;;;;;10.52;2.72;;;;;;;32.67;31.91;99644.28;4998846;28;20140;-75
2022/08/11 14:53:33;;;;;;;9.35;2.50;;;;;;;32.43;32.42;99654.84;5014432;28;20135;-76
2022/08/11 14:58:45;;;;;;;7.85;3.08;;;;;;;31.54;33.77;99655.75;5032343;28;20037;-75
2022/08/11 15:03:58;;;;;;;4.82;2.28;;;;;;;30.76;34.77;99662.09;5015005;28;20151;-75
2022/08/11 15:06:27;;;;;;;8.48;2.88;;;;;;;30.74;34.90;99659.59;5014930;28;20484;-75
2022/08/11 15:08:54;;;;;;;8.70;2.85;;;;;;;30.94;34.67;99664.66;5031263;28;20044;-76
2022/08/11 15:14:09;;;;;;;10.00;2.73;;;;;;;30.44;35.05;99673.59;5031481;28;20183;-75
2022/08/11 15:19:32;;;;;;;5.85;3.05;;;;;;;29.42;36.56;99671.25;5035397;28;20515;-76
2022/08/11 15:24:42;;;;;;;5.57;3.35;;;;;;;28.47;38.08;99683.84;5051152;28;20349;-75
2022/08/11 15:38:19;;;;;;;7.50;3.00;;;;;;;26.93;40.90;99701.06;5039625;28;20052;-76
2022/08/11 15:46:45;;;;;;;4.53;2.92;;;;;;;26.46;40.50;99694.97;5034409;28;20116;-75
2022/08/11 15:49:15;;;;;;;14.85;3.25;;;;;;;26.43;40.59;99696.22;5034438;28;20049;-75
2022/08/11 15:51:47;;;;;;;10.15;3.25;;;;;;;26.30;40.75;99693.53;5018043;28;20048;-75
2022/08/11 15:54:19;;;;;;;10.77;3.55;;;;;;;26.24;40.54;99708.94;5050741;28;20060;-76
2022/08/11 15:56:49;;;;;;;8.90;3.45;;;;;;;26.07;41.12;99713.22;5018244;28;20420;-78
2022/08/11 16:04:51;;;;;;;11.13;2.65;;;;;;;25.55;42.01;99725.88;5034121;28;20052;-76
2022/08/11 16:07:26;;;;;;;10.45;3.00;;;;;;;25.43;42.17;99726.53;5050862;28;20543;-77
2022/08/11 16:09:58;;;;;;;15.18;3.08;;;;;;;25.31;42.31;99736.41;5043833;28;20048;-75
2022/08/11 16:12:29;;;;;;;11.93;3.33;;;;;;;25.25;42.48;99737.22;5017836;28;20049;-74
2022/08/11 16:18:00;;;;;;;6.15;2.80;;;;;;;25.12;42.00;99737.19;5033366;28;20103;-80
2022/08/11 16:20:28;;;;;;;11.57;2.90;;;;;;;25.16;41.95;99743.94;5017595;28;20053;-76
2022/08/11 16:22:59;;;;;;;9.13;3.47;;;;;;;25.14;41.81;99746.91;5000861;28;20075;-75
2022/08/11 16:25:26;;;;;;;13.32;3.10;;;;;;;25.02;42.17;99747.69;5000912;28;20064;-75
2022/08/11 16:28:03;;;;;;;6.15;2.90;;;;;;;24.91;42.15;99741.75;4999776;28;20053;-80
2022/08/11 16:30:32;;;;;;;6.03;2.90;;;;;;;24.89;42.33;99743.00;5016424;28;20038;-76
2022/08/11 16:33:03;;;;;;;5.20;2.53;;;;;;;24.71;42.42;99744.44;5015673;28;20500;-78
2022/08/11 16:38:34;;;;;;;12.23;3.50;;;;;;;24.65;42.46;99755.34;5034076;28;20052;-76
2022/08/11 16:41:04;;;;;;;3.50;2.40;;;;;;;24.61;42.64;99759.53;5050767;28;20073;-78
2022/08/11 16:49:24;;;;;;;10.95;3.03;;;;;;;24.44;42.99;99757.13;5032004;28;20148;-76
2022/08/11 16:51:51;;;;;;;8.82;3.15;;;;;;;24.33;43.21;99763.13;5029517;28;20132;-77